Shady Side, Maryland
Current Conditions -  °F | °C
As of 5:54 AM on Friday 19 Dec 2014 (Local Time) from KNAK Reporting Station
Overcast Overcast  
Wind Chill: 29°   Ceiling: 3700
Heat Index: 35°   Visibility: 10mi
Dew Point: 24°   Wind: 7mph
Humidity: 64%   Direction: 300°WNW
Pressure: 30.11"   Gusts: NA
Location:  38.84°N, 76.51°W
Report Text: KNAK 191054Z AUTO 30006KT 10SM OVC037 02/M04 A3011 RMK AO2 SLP196 T00171044 $
Loading
Personal Weather Stations






























Interactive Weather Map New forecast layout! Learn more

10-Day Weather Forecast

Advertisements
Track Severe Weather on mobile